General Aviation Weather

Text Reports

Enter one or more of the following location identifiers separated by a space:

Zip Code, Four-Character ICAO or Three-Character IATA airport codes.

METAR - Aviation Routine Weather Report
KMRF - Marfa, Texas
Updated at 11:15 PM GMT on May 03, 2015 (6:15 PM CDT):
METAR KMRF 032315Z AUTO 05005KT 10SM SCT090 BKN120 25/07 A2997 RMK AO1 TSE06
TAF - Terminal Area Forecast
KMRF - Marfa, Texas
Updated at 11:15 PM GMT on May 03, 2015 (6:15 PM CDT):
No TAF is currently available for this location.
Decoded:
No decoded TAF is available.
PIREP - Pilot Weather Report
KMRF - Marfa, Texas
Updated at 11:15 PM GMT on May 03, 2015 (6:15 PM CDT):
No PIREP is currently available for this location.
AIRMET - Airmens Meteorological Information
KMRF - Marfa, Texas
Updated at 11:15 PM GMT on May 03, 2015 (6:15 PM CDT):
No AIRMET is currently available for this location.
SIGMET - Significant Meteorological Information
KMRF - Marfa, Texas
Updated at 11:15 PM GMT on May 03, 2015 (6:15 PM CDT):
No SIGMET is currently available for this location.
NOTAM - Notice to Airmen
KMRF - Marfa, Texas
Updated at 11:15 PM GMT on May 03, 2015 (6:15 PM CDT):
No NOTAM is currently available for this location.
Forecast Area
KMRF - Marfa, Texas
Updated at 11:15 PM GMT on May 03, 2015 (6:15 PM CDT):
No NOTAM is currently available for this location.
Aviation Weather Maps